createdAt,value
2018-04-30T00:00:29.325Z,45.76
2018-04-30T00:01:29.343Z,46.62
2018-04-30T00:02:29.353Z,45.47
2018-04-30T00:03:29.371Z,45.37
2018-04-30T00:04:29.382Z,45.56
2018-04-30T00:05:29.396Z,45.47
2018-04-30T00:06:29.407Z,44.70
2018-04-30T00:07:29.418Z,46.23
2018-04-30T00:08:29.436Z,45.66
2018-04-30T00:09:29.452Z,45.56
2018-04-30T00:10:29.465Z,44.41
2018-04-30T00:11:29.503Z,44.22
2018-04-30T00:12:29.505Z,45.95
2018-04-30T00:13:29.500Z,48.54
2018-04-30T00:14:29.536Z,48.74
2018-04-30T00:15:29.532Z,49.60
2018-04-30T00:16:29.543Z,48.43
2018-04-30T00:17:29.555Z,47.85
2018-04-30T00:18:29.580Z,48.61
2018-04-30T00:19:29.585Z,46.31
2018-04-30T00:20:29.609Z,46.79
2018-04-30T00:21:29.608Z,45.45
2018-04-30T00:22:29.622Z,44.38
2018-04-30T00:23:29.640Z,44.58
2018-04-30T00:24:29.680Z,44.48
2018-04-30T00:25:29.703Z,43.16
2018-04-30T00:26:29.676Z,42.97
2018-04-30T00:27:29.690Z,42.68
2018-04-30T00:28:29.707Z,42.39
2018-04-30T00:29:29.718Z,43.16
2018-04-30T00:30:29.734Z,42.58
2018-04-30T00:31:29.743Z,42.20
2018-04-30T00:32:29.759Z,41.62
2018-04-30T00:33:29.785Z,41.53
2018-04-30T00:34:29.783Z,41.53
2018-04-30T00:35:29.797Z,41.72
2018-04-30T00:36:29.813Z,41.53
2018-04-30T00:37:29.824Z,41.62
2018-04-30T00:38:29.844Z,41.62
2018-04-30T00:39:29.883Z,42.10
2018-04-30T00:40:29.866Z,42.00
2018-04-30T00:41:29.882Z,42.10
2018-04-30T00:42:29.892Z,42.20
2018-04-30T00:43:29.901Z,43.26
2018-04-30T00:44:29.943Z,44.89
2018-04-30T00:45:30.047Z,43.93
2018-04-30T00:46:29.948Z,44.31
2018-04-30T00:47:29.957Z,45.45
2018-04-30T00:48:29.972Z,45.35
2018-04-30T00:49:29.983Z,48.04
2018-04-30T00:50:29.999Z,48.81
2018-04-30T00:51:30.012Z,49.57
2018-04-30T00:52:30.025Z,48.04
2018-04-30T00:53:30.037Z,47.63
2018-04-30T00:54:30.056Z,46.09
2018-04-30T00:55:30.066Z,46.19
2018-04-30T00:56:30.080Z,49.55
2018-04-30T00:57:30.094Z,50.23
2018-04-30T00:58:30.141Z,50.42
2018-04-30T00:59:30.121Z,51.67
2018-04-30T01:00:30.152Z,49.15
2018-04-30T01:01:30.142Z,49.52
2018-04-30T01:02:30.154Z,50.01
2018-04-30T01:03:30.230Z,51.45
2018-04-30T01:04:30.184Z,50.58
2018-04-30T01:05:30.198Z,50.58
2018-04-30T01:06:30.215Z,50.49
2018-04-30T01:07:30.230Z,48.28
2018-04-30T01:08:30.239Z,47.71
2018-04-30T01:09:30.250Z,48.66
2018-04-30T01:10:30.264Z,48.35
2018-04-30T01:11:30.281Z,47.77
2018-04-30T01:12:30.288Z,47.32
2018-04-30T01:13:30.299Z,46.65
2018-04-30T01:14:30.317Z,47.22
2018-04-30T01:15:30.349Z,47.61
2018-04-30T01:16:30.405Z,46.94
2018-04-30T01:17:30.363Z,46.45
2018-04-30T01:18:30.385Z,46.17
2018-04-30T01:19:30.383Z,46.36
2018-04-30T01:20:30.392Z,45.98
2018-04-30T01:21:30.404Z,46.00
2018-04-30T01:22:30.420Z,46.07
2018-04-30T01:23:30.475Z,45.23
2018-04-30T01:24:30.443Z,46.00
2018-04-30T01:25:30.460Z,46.67
2018-04-30T01:26:30.475Z,47.15
2018-04-30T01:27:30.484Z,47.61
2018-04-30T01:28:30.499Z,47.41
2018-04-30T01:29:30.506Z,47.80
2018-04-30T01:30:30.522Z,47.89
2018-04-30T01:31:30.572Z,48.47
2018-04-30T01:32:30.547Z,48.28
2018-04-30T01:33:30.563Z,48.28
2018-04-30T01:34:30.577Z,48.66
2018-04-30T01:35:30.584Z,48.28
2018-04-30T01:36:30.599Z,48.85
2018-04-30T01:37:30.614Z,48.38
2018-04-30T01:38:30.625Z,49.72
2018-04-30T01:39:30.636Z,50.01
2018-04-30T01:40:30.683Z,50.49
2018-04-30T01:41:30.664Z,51.35
2018-04-30T01:42:30.680Z,52.69
2018-04-30T01:43:30.688Z,52.09
2018-04-30T01:44:30.703Z,52.86
2018-04-30T01:45:30.719Z,54.39
2018-04-30T01:46:30.748Z,54.30
2018-04-30T01:47:30.751Z,55.35
2018-04-30T01:48:30.761Z,56.31
2018-04-30T01:49:30.774Z,57.85
2018-04-30T01:50:30.780Z,59.96
2018-04-30T01:51:30.792Z,63.79
2018-04-30T01:52:30.810Z,65.33
2018-04-30T01:53:30.838Z,66.55
2018-04-30T01:54:30.832Z,67.69
2018-04-30T01:55:30.847Z,67.41
2018-04-30T01:56:30.856Z,68.37
2018-04-30T01:57:30.872Z,69.13
2018-04-30T01:58:30.886Z,69.48
2018-04-30T01:59:30.902Z,70.35
2018-04-30T02:00:30.906Z,70.64
2018-04-30T02:01:30.921Z,69.77
2018-04-30T02:02:30.936Z,69.01
2018-04-30T02:03:30.957Z,68.81
2018-04-30T02:04:30.963Z,68.91
2018-04-30T02:05:30.972Z,68.33
2018-04-30T02:06:30.983Z,67.82
2018-04-30T02:07:30.995Z,68.52
2018-04-30T02:08:31.013Z,67.44
2018-04-30T02:09:31.036Z,67.82
2018-04-30T02:10:31.042Z,67.54
2018-04-30T02:11:31.046Z,68.11
2018-04-30T02:12:31.060Z,67.91
2018-04-30T02:13:31.072Z,67.82
2018-04-30T02:14:31.097Z,67.72
2018-04-30T02:15:31.095Z,67.63
2018-04-30T02:16:31.113Z,67.72
2018-04-30T02:17:31.146Z,67.15
2018-04-30T02:18:31.131Z,67.05
2018-04-30T02:19:31.145Z,66.64
2018-04-30T02:20:31.164Z,66.54
2018-04-30T02:21:31.170Z,66.54
2018-04-30T02:22:31.225Z,66.25
2018-04-30T02:23:31.193Z,65.78
2018-04-30T02:24:31.233Z,64.72
2018-04-30T02:25:31.224Z,64.15
2018-04-30T02:26:31.236Z,63.83
2018-04-30T02:27:31.242Z,63.93
2018-04-30T02:28:31.266Z,63.83
2018-04-30T02:29:31.270Z,63.06
2018-04-30T02:30:31.279Z,62.49
2018-04-30T02:31:31.293Z,61.25
2018-04-30T02:32:31.304Z,60.86
2018-04-30T02:33:31.383Z,60.45
2018-04-30T02:34:31.330Z,60.26
2018-04-30T02:35:31.365Z,60.55
2018-04-30T02:36:31.352Z,60.55
2018-04-30T02:37:31.360Z,60.45
2018-04-30T02:38:31.384Z,60.16
2018-04-30T02:39:31.391Z,60.35
2018-04-30T02:40:31.398Z,59.59
2018-04-30T02:41:31.413Z,59.78
2018-04-30T02:42:31.431Z,59.49
2018-04-30T02:43:31.467Z,58.92
2018-04-30T02:44:31.445Z,57.29
2018-04-30T02:45:31.458Z,56.88
2018-04-30T02:46:31.475Z,56.69
2018-04-30T02:47:31.496Z,56.98
2018-04-30T02:48:31.496Z,57.46
2018-04-30T02:49:31.507Z,57.65
2018-04-30T02:50:31.532Z,57.84
2018-04-30T02:51:31.537Z,58.12
2018-04-30T02:52:39.479Z,58.12
2018-04-30T02:54:36.071Z,57.84
2018-04-30T02:55:36.173Z,57.17
2018-04-30T02:56:36.141Z,57.36
2018-04-30T02:57:44.019Z,58.03
2018-04-30T02:59:40.824Z,57.75
2018-04-30T03:00:40.597Z,56.60
2018-04-30T03:02:45.088Z,58.12
2018-04-30T03:03:45.421Z,57.84
2018-04-30T03:05:49.673Z,56.18
2018-04-30T03:06:57.596Z,56.88
2018-04-30T03:08:43.107Z,56.79
2018-04-30T03:09:51.179Z,55.93
2018-04-30T03:11:47.892Z,55.42
2018-04-30T03:12:47.709Z,55.32
2018-04-30T03:14:52.424Z,57.62
2018-04-30T03:15:52.379Z,57.81
2018-04-30T03:17:56.893Z,57.97
2018-04-30T03:18:56.776Z,59.22
2018-04-30T03:21:02.441Z,59.31
2018-04-30T03:22:02.227Z,59.31
2018-04-30T03:24:06.775Z,60.55
2018-04-30T03:25:06.919Z,60.14
2018-04-30T03:26:14.865Z,60.36
2018-04-30T03:28:11.497Z,61.00
2018-04-30T03:29:11.313Z,62.05
2018-04-30T03:31:15.873Z,62.05
2018-04-30T03:32:16.156Z,62.05
2018-04-30T03:34:09.358Z,61.95
2018-04-30T03:35:09.636Z,63.39
2018-04-30T03:36:09.513Z,63.29
2018-04-30T03:37:09.733Z,64.02
2018-04-30T03:38:09.372Z,64.12
2018-04-30T03:39:09.465Z,64.69
2018-04-30T03:40:09.396Z,65.55
2018-04-30T03:41:09.441Z,65.55
2018-04-30T03:42:09.409Z,65.45
2018-04-30T03:43:09.417Z,67.27
2018-04-30T03:44:09.439Z,68.88
2018-04-30T03:45:09.440Z,69.27
2018-04-30T03:46:09.451Z,70.86
2018-04-30T03:47:09.467Z,74.67
2018-04-30T03:48:09.471Z,78.58
2018-04-30T03:49:09.483Z,78.58
2018-04-30T03:50:09.491Z,79.11
2018-04-30T03:51:09.516Z,80.54
2018-04-30T03:52:09.513Z,81.88
2018-04-30T03:53:09.531Z,84.22
2018-04-30T03:54:09.537Z,86.88
2018-04-30T03:55:09.553Z,86.12
2018-04-30T03:56:09.572Z,88.22
2018-04-30T03:57:09.566Z,89.36
2018-04-30T03:58:09.574Z,91.46
2018-04-30T03:59:09.593Z,90.22
2018-04-30T04:00:09.598Z,91.08
2018-04-30T04:01:09.607Z,91.46
2018-04-30T04:02:09.617Z,91.65
2018-04-30T04:03:09.705Z,90.79
2018-04-30T04:04:09.649Z,91.94
2018-04-30T04:05:09.661Z,91.46
2018-04-30T04:06:09.656Z,91.55
2018-04-30T04:07:09.668Z,92.22
2018-04-30T04:08:09.677Z,93.17
2018-04-30T04:09:09.691Z,93.70
2018-04-30T04:10:09.696Z,94.08
2018-04-30T04:11:09.712Z,92.55
2018-04-30T04:12:09.719Z,92.46
2018-04-30T04:13:09.729Z,92.17
2018-04-30T04:14:09.739Z,91.60
2018-04-30T04:15:09.747Z,90.64
2018-04-30T04:16:09.757Z,92.41
2018-04-30T04:17:09.772Z,91.55
2018-04-30T04:18:09.783Z,90.55
2018-04-30T04:19:09.824Z,91.60
2018-04-30T04:20:09.801Z,93.79
2018-04-30T04:21:09.808Z,92.03
2018-04-30T04:22:09.820Z,90.84
2018-04-30T04:23:09.831Z,90.45
2018-04-30T04:24:09.840Z,91.31
2018-04-30T04:25:09.850Z,92.17
2018-04-30T04:26:09.856Z,90.64
2018-04-30T04:27:09.871Z,90.93
2018-04-30T04:28:09.882Z,90.31
2018-04-30T04:29:09.890Z,93.03
2018-04-30T04:30:09.901Z,92.08
2018-04-30T04:31:09.911Z,91.74
2018-04-30T04:32:09.926Z,92.55
2018-04-30T04:33:09.930Z,93.41
2018-04-30T04:34:09.947Z,94.37
2018-04-30T04:35:09.954Z,92.93
2018-04-30T04:36:09.963Z,91.98
2018-04-30T04:37:09.974Z,92.17
2018-04-30T04:38:09.981Z,91.50
2018-04-30T04:39:09.989Z,91.50
2018-04-30T04:40:10.001Z,91.60
2018-04-30T04:41:10.013Z,90.36
2018-04-30T04:42:10.035Z,92.55
2018-04-30T04:43:10.029Z,92.55
2018-04-30T04:44:10.049Z,93.08
2018-04-30T04:45:10.055Z,92.12
2018-04-30T04:46:10.060Z,91.36
2018-04-30T04:47:10.072Z,91.93
2018-04-30T04:48:10.081Z,94.12
2018-04-30T04:49:10.089Z,93.74
2018-04-30T04:50:10.108Z,92.27
2018-04-30T04:51:10.115Z,93.70
2018-04-30T04:52:10.125Z,94.56
2018-04-30T04:53:10.139Z,97.03
2018-04-30T04:54:10.145Z,94.17
2018-04-30T04:55:10.151Z,95.98
2018-04-30T04:56:10.171Z,95.79
2018-04-30T04:57:10.175Z,93.32
2018-04-30T04:58:10.181Z,94.84
2018-04-30T04:59:10.194Z,95.32
2018-04-30T05:00:10.220Z,96.08
2018-04-30T05:01:10.230Z,93.79
2018-04-30T05:02:10.255Z,92.93
2018-04-30T05:03:10.231Z,93.88
2018-04-30T05:04:10.249Z,94.08
2018-04-30T05:05:10.252Z,94.17
2018-04-30T05:06:10.276Z,93.03
2018-04-30T05:07:10.303Z,92.17
2018-04-30T05:08:10.286Z,91.69
2018-04-30T05:09:10.292Z,94.93
2018-04-30T05:10:10.340Z,92.17
2018-04-30T05:11:10.313Z,92.17
2018-04-30T05:12:10.320Z,91.41
2018-04-30T05:13:10.361Z,92.55
2018-04-30T05:14:10.342Z,93.55
2018-04-30T05:15:10.349Z,92.41
2018-04-30T05:16:10.360Z,92.69
2018-04-30T05:17:10.377Z,92.32
2018-04-30T05:18:10.420Z,93.17
2018-04-30T05:19:10.390Z,91.31
2018-04-30T05:20:10.474Z,90.08
2018-04-30T05:21:10.427Z,90.64
2018-04-30T05:22:10.424Z,90.74
2018-04-30T05:23:10.431Z,91.31
2018-04-30T05:24:10.444Z,91.41
2018-04-30T05:25:10.450Z,92.60
2018-04-30T05:26:10.471Z,90.55
2018-04-30T05:27:10.477Z,91.17
2018-04-30T05:28:10.481Z,90.17
2018-04-30T05:29:10.497Z,88.36
2018-04-30T05:30:10.501Z,89.64
2018-04-30T05:31:10.509Z,90.03
2018-04-30T05:32:10.520Z,89.26
2018-04-30T05:33:10.606Z,90.79
2018-04-30T05:34:10.547Z,90.22
2018-04-30T05:35:10.553Z,89.07
2018-04-30T05:36:10.565Z,87.69
2018-04-30T05:37:10.589Z,88.55
2018-04-30T05:38:10.585Z,88.84
2018-04-30T05:39:10.590Z,88.45
2018-04-30T05:40:10.602Z,89.03
2018-04-30T05:41:10.617Z,90.93
2018-04-30T05:42:10.622Z,90.26
2018-04-30T05:43:10.634Z,90.45
2018-04-30T05:44:10.724Z,89.79
2018-04-30T05:45:10.649Z,90.64
2018-04-30T05:46:10.662Z,90.74
2018-04-30T05:47:10.669Z,89.79
2018-04-30T05:48:10.685Z,90.84
2018-04-30T05:49:10.689Z,90.64
2018-04-30T05:50:10.702Z,91.13
2018-04-30T05:51:10.713Z,89.50
2018-04-30T05:52:10.719Z,89.03
2018-04-30T05:53:10.728Z,89.79
2018-04-30T05:54:10.740Z,88.84
2018-04-30T05:55:10.832Z,90.26
2018-04-30T05:56:10.768Z,89.31
2018-04-30T05:57:10.771Z,88.64
2018-04-30T05:58:10.792Z,87.79
2018-04-30T05:59:10.788Z,88.26
2018-04-30T06:00:10.923Z,89.03
2018-04-30T06:01:10.808Z,89.50
2018-04-30T06:02:10.823Z,88.55
2018-04-30T06:03:10.859Z,87.98
2018-04-30T06:04:10.846Z,88.45
2018-04-30T06:05:10.864Z,87.60
2018-04-30T06:06:10.858Z,88.55
2018-04-30T06:07:10.971Z,88.64
2018-04-30T06:08:19.753Z,89.50
2018-04-30T06:10:04.517Z,88.93
2018-04-30T06:11:04.432Z,90.64
2018-04-30T06:13:08.871Z,89.17
2018-04-30T06:14:09.027Z,89.17
2018-04-30T06:16:13.091Z,88.50
2018-04-30T06:17:13.462Z,88.31
2018-04-30T06:19:06.329Z,89.26
2018-04-30T06:20:06.520Z,88.78
2018-04-30T06:22:11.126Z,88.98
2018-04-30T06:23:10.824Z,91.07
2018-04-30T06:25:16.349Z,88.31
2018-04-30T06:26:16.402Z,88.98
2018-04-30T06:27:16.515Z,87.64
2018-04-30T06:28:16.661Z,87.83
2018-04-30T06:29:16.382Z,87.74
2018-04-30T06:30:16.402Z,88.88
2018-04-30T06:31:16.523Z,89.45
2018-04-30T06:32:16.416Z,88.88
2018-04-30T06:33:16.423Z,88.69
2018-04-30T06:34:16.464Z,88.31
2018-04-30T06:35:16.443Z,88.64
2018-04-30T06:36:16.454Z,89.12
2018-04-30T06:37:16.460Z,88.93
2018-04-30T06:38:16.477Z,88.93
2018-04-30T06:39:16.484Z,88.69
2018-04-30T06:40:16.494Z,88.88
2018-04-30T06:41:16.522Z,88.59
2018-04-30T06:42:16.586Z,87.54
2018-04-30T06:43:16.550Z,87.74
2018-04-30T06:44:16.532Z,86.78
2018-04-30T06:45:16.549Z,86.88
2018-04-30T06:46:16.550Z,86.98
2018-04-30T06:47:16.573Z,86.40
2018-04-30T06:48:16.583Z,86.49
2018-04-30T06:49:16.581Z,86.40
2018-04-30T06:50:16.633Z,86.59
2018-04-30T06:51:16.602Z,88.50
2018-04-30T06:52:16.611Z,88.78
2018-04-30T06:53:16.621Z,90.22
2018-04-30T06:54:16.650Z,89.07
2018-04-30T06:55:16.654Z,87.11
2018-04-30T06:56:16.666Z,86.25
2018-04-30T06:57:16.660Z,87.02
2018-04-30T06:58:16.699Z,87.93
2018-04-30T06:59:16.679Z,85.93
2018-04-30T07:00:16.715Z,86.88
2018-04-30T07:01:16.697Z,88.07
2018-04-30T07:02:16.705Z,87.07
2018-04-30T07:03:16.720Z,87.64
2018-04-30T07:04:16.727Z,89.83
2018-04-30T07:05:16.740Z,88.92
2018-04-30T07:06:16.746Z,87.02
2018-04-30T07:07:16.761Z,87.21
2018-04-30T07:08:16.766Z,87.11
2018-04-30T07:09:16.952Z,87.11
2018-04-30T07:10:16.787Z,87.59
2018-04-30T07:11:16.809Z,87.35
2018-04-30T07:12:16.809Z,85.53
2018-04-30T07:13:16.856Z,84.58
2018-04-30T07:14:16.825Z,83.34
2018-04-30T07:15:16.840Z,84.05
2018-04-30T07:16:16.851Z,84.62
2018-04-30T07:17:16.854Z,84.62
2018-04-30T07:18:16.870Z,83.95
2018-04-30T07:19:16.879Z,85.10
2018-04-30T07:20:16.889Z,83.38
2018-04-30T07:21:16.896Z,81.47
2018-04-30T07:22:16.907Z,81.76
2018-04-30T07:23:16.917Z,80.99
2018-04-30T07:24:16.974Z,81.13
2018-04-30T07:25:16.940Z,81.70
2018-04-30T07:26:16.991Z,80.13
2018-04-30T07:27:16.962Z,80.90
2018-04-30T07:28:16.973Z,80.13
2018-04-30T07:29:17.008Z,80.99
2018-04-30T07:30:16.991Z,79.56
2018-04-30T07:31:17.004Z,80.13
2018-04-30T07:32:17.021Z,81.76
2018-04-30T07:33:17.085Z,82.32
2018-04-30T07:34:17.048Z,80.99
2018-04-30T07:35:17.051Z,81.79
2018-04-30T07:36:17.056Z,81.03
2018-04-30T07:37:17.067Z,81.32
2018-04-30T07:38:17.076Z,79.22
2018-04-30T07:39:17.099Z,79.12
2018-04-30T07:40:17.100Z,80.36
2018-04-30T07:41:17.119Z,80.65
2018-04-30T07:42:17.130Z,80.36
2018-04-30T07:43:17.248Z,79.98
2018-04-30T07:44:17.164Z,79.50
2018-04-30T07:45:17.157Z,78.26
2018-04-30T07:46:17.170Z,78.55
2018-04-30T07:47:17.205Z,79.50
2018-04-30T07:48:17.193Z,79.60
2018-04-30T07:49:17.245Z,80.17
2018-04-30T07:50:17.211Z,82.28
2018-04-30T07:51:17.225Z,82.90
2018-04-30T07:52:17.232Z,80.38
2018-04-30T07:53:17.372Z,80.66
2018-04-30T07:54:17.256Z,81.71
2018-04-30T07:55:17.264Z,80.47
2018-04-30T07:56:17.278Z,82.95
2018-04-30T07:57:17.336Z,82.09
2018-04-30T07:58:17.368Z,79.27
2018-04-30T07:59:17.362Z,82.23
2018-04-30T08:00:17.320Z,82.04
2018-04-30T08:01:17.331Z,80.80
2018-04-30T08:02:17.339Z,79.41
2018-04-30T08:03:17.352Z,77.87
2018-04-30T08:04:17.367Z,79.88
2018-04-30T08:05:17.418Z,80.93
2018-04-30T08:06:17.414Z,79.50
2018-04-30T08:07:17.394Z,80.36
2018-04-30T08:08:17.443Z,80.27
2018-04-30T08:09:17.418Z,80.36
2018-04-30T08:10:17.428Z,79.88
2018-04-30T08:11:17.589Z,77.97
2018-04-30T08:12:17.532Z,79.02
2018-04-30T08:13:17.752Z,76.06
2018-04-30T08:14:17.501Z,78.93
2018-04-30T08:15:17.714Z,80.46
2018-04-30T08:16:17.499Z,78.39
2018-04-30T08:17:17.498Z,75.34
2018-04-30T08:18:17.530Z,76.96
2018-04-30T08:19:17.578Z,76.20
2018-04-30T08:20:17.575Z,77.72
2018-04-30T08:21:26.596Z,77.00
2018-04-30T08:23:22.229Z,79.25
2018-04-30T08:24:22.071Z,78.30
2018-04-30T08:25:22.332Z,76.33
2018-04-30T08:26:22.457Z,73.17
2018-04-30T08:27:22.234Z,75.18
2018-04-30T08:28:22.214Z,72.85
2018-04-30T08:31:22.294Z,77.63
2018-04-30T08:32:23.539Z,76.96
2018-04-30T08:33:23.061Z,76.48
2018-04-30T08:34:23.644Z,75.91
2018-04-30T08:35:23.414Z,75.05
2018-04-30T08:36:30.129Z,73.65
2018-04-30T08:38:37.855Z,72.50
2018-04-30T08:39:20.400Z,69.60
2018-04-30T08:40:18.363Z,71.64
2018-04-30T08:41:22.308Z,73.75
2018-04-30T08:42:18.837Z,71.80
2018-04-30T08:43:18.917Z,70.17
2018-04-30T08:44:18.251Z,71.07
2018-04-30T08:45:18.282Z,70.78
2018-04-30T08:46:18.571Z,71.07
2018-04-30T08:47:19.139Z,71.83
2018-04-30T08:48:18.294Z,68.39
2018-04-30T08:49:18.311Z,67.43
2018-04-30T08:50:18.665Z,68.58
2018-04-30T08:51:18.327Z,67.05
2018-04-30T08:52:19.133Z,67.34
2018-04-30T08:53:18.356Z,67.82
2018-04-30T08:54:18.362Z,66.76
2018-04-30T08:55:19.283Z,67.53
2018-04-30T08:56:18.403Z,66.22
2018-04-30T08:57:18.423Z,63.54
2018-04-30T08:58:18.582Z,63.64
2018-04-30T08:59:18.416Z,62.87
2018-04-30T09:00:18.510Z,63.73
2018-04-30T09:01:18.441Z,65.20
2018-04-30T09:02:18.449Z,65.20
2018-04-30T09:03:18.365Z,64.82
2018-04-30T09:04:18.476Z,65.88
2018-04-30T09:05:18.509Z,68.07
2018-04-30T09:06:18.510Z,65.97
2018-04-30T09:07:18.504Z,65.39
2018-04-30T09:08:18.587Z,62.71
2018-04-30T09:09:18.532Z,62.43
2018-04-30T09:10:18.539Z,63.39
2018-04-30T09:11:18.549Z,64.34
2018-04-30T09:12:18.560Z,66.61
2018-04-30T09:13:18.573Z,67.21
2018-04-30T09:14:18.599Z,67.21
2018-04-30T09:15:18.599Z,64.98
2018-04-30T09:16:18.608Z,63.73
2018-04-30T09:17:18.617Z,62.49
2018-04-30T09:18:18.634Z,64.12
2018-04-30T09:19:18.637Z,63.45
2018-04-30T09:20:18.655Z,62.87
2018-04-30T09:21:18.663Z,63.35
2018-04-30T09:22:18.682Z,63.35
2018-04-30T09:23:18.791Z,64.15
2018-04-30T09:24:18.731Z,62.90
2018-04-30T09:25:18.706Z,62.01
2018-04-30T09:26:18.733Z,62.49
2018-04-30T09:27:18.749Z,62.77
2018-04-30T09:28:18.739Z,63.54
2018-04-30T09:29:18.753Z,63.86
2018-04-30T09:30:18.789Z,62.30
2018-04-30T09:31:18.776Z,63.64
2018-04-30T09:32:18.784Z,63.80
2018-04-30T09:33:18.828Z,65.90
2018-04-30T09:34:18.812Z,66.67
2018-04-30T09:35:18.821Z,65.14
2018-04-30T09:36:18.835Z,62.68
2018-04-30T09:37:18.848Z,61.05
2018-04-30T09:38:18.852Z,61.05
2018-04-30T09:39:18.866Z,62.77
2018-04-30T09:40:18.812Z,62.23
2018-04-30T09:41:19.642Z,64.15
2018-04-30T09:42:18.898Z,64.25
2018-04-30T09:43:18.910Z,65.01
2018-04-30T09:44:18.924Z,65.14
2018-04-30T09:45:18.945Z,63.32
2018-04-30T09:46:18.944Z,62.46
2018-04-30T09:47:18.961Z,62.65
2018-04-30T09:48:18.967Z,62.55
2018-04-30T09:49:19.051Z,61.69
2018-04-30T09:50:18.898Z,59.97
2018-04-30T09:51:19.004Z,59.13
2018-04-30T09:52:19.054Z,61.63
2018-04-30T09:53:19.028Z,60.86
2018-04-30T09:54:19.037Z,63.29
2018-04-30T09:55:19.050Z,60.86
2018-04-30T09:56:19.060Z,60.09
2018-04-30T09:57:19.075Z,60.09
2018-04-30T09:58:19.220Z,59.61
2018-04-30T09:59:19.230Z,60.09
2018-04-30T10:00:19.173Z,60.47
2018-04-30T10:01:19.122Z,61.11
2018-04-30T10:02:19.131Z,59.87
2018-04-30T10:03:19.145Z,59.58
2018-04-30T10:04:19.154Z,60.54
2018-04-30T10:05:19.164Z,59.90
2018-04-30T10:06:20.142Z,60.76
2018-04-30T10:07:19.265Z,59.71
2018-04-30T10:08:19.202Z,60.57
2018-04-30T10:09:19.220Z,63.92
2018-04-30T10:10:19.225Z,60.38
2018-04-30T10:11:19.237Z,58.49
2018-04-30T10:12:19.250Z,56.74
2018-04-30T10:13:19.263Z,57.43
2018-04-30T10:14:19.274Z,57.06
2018-04-30T10:15:19.285Z,56.96
2018-04-30T10:16:19.307Z,57.53
2018-04-30T10:17:19.308Z,61.94
2018-04-30T10:18:19.323Z,60.99
2018-04-30T10:19:19.335Z,59.61
2018-04-30T10:20:19.350Z,60.22
2018-04-30T10:21:19.363Z,61.37
2018-04-30T10:22:19.367Z,64.82
2018-04-30T10:23:19.482Z,61.02
2018-04-30T10:24:19.397Z,59.64
2018-04-30T10:25:19.406Z,60.22
2018-04-30T10:26:19.419Z,61.08
2018-04-30T10:27:19.432Z,62.52
2018-04-30T10:28:19.449Z,66.19
2018-04-30T10:29:19.455Z,61.18
2018-04-30T10:30:19.491Z,58.49
2018-04-30T10:31:19.377Z,59.06
2018-04-30T10:32:19.494Z,61.37
2018-04-30T10:33:19.504Z,63.00
2018-04-30T10:34:19.520Z,57.82
2018-04-30T10:35:19.531Z,56.29
2018-04-30T10:36:19.553Z,53.91
2018-04-30T10:37:19.563Z,52.48
2018-04-30T10:38:19.567Z,54.01
2018-04-30T10:39:19.578Z,54.13
2018-04-30T10:40:19.592Z,57.21
2018-04-30T10:41:19.615Z,52.60
2018-04-30T10:42:19.618Z,54.04
2018-04-30T10:43:19.635Z,55.29
2018-04-30T10:44:19.649Z,52.22
2018-04-30T10:45:19.653Z,55.22
2018-04-30T10:46:19.669Z,56.18
2018-04-30T10:47:19.679Z,53.87
2018-04-30T10:48:19.698Z,52.43
2018-04-30T10:49:19.706Z,50.70
2018-04-30T10:50:19.722Z,50.70
2018-04-30T10:51:19.732Z,51.28
2018-04-30T10:52:19.742Z,52.89
2018-04-30T10:53:19.788Z,51.37
2018-04-30T10:54:19.779Z,49.33
2018-04-30T10:55:19.873Z,49.33
2018-04-30T10:56:19.832Z,49.93
2018-04-30T10:57:19.831Z,52.14
2018-04-30T10:58:19.822Z,52.08
2018-04-30T10:59:19.845Z,51.37
2018-04-30T11:00:19.900Z,50.44
2018-04-30T11:01:19.888Z,49.67
2018-04-30T11:02:19.957Z,50.73
2018-04-30T11:03:19.883Z,50.03
2018-04-30T11:04:19.896Z,50.99
2018-04-30T11:05:19.915Z,52.14
2018-04-30T11:06:19.922Z,54.41
2018-04-30T11:07:19.935Z,52.00
2018-04-30T11:08:19.949Z,46.64
2018-04-30T11:09:19.963Z,45.22
2018-04-30T11:10:19.982Z,46.50
2018-04-30T11:11:20.024Z,47.10
2018-04-30T11:12:20.081Z,41.99
2018-04-30T11:13:20.024Z,45.39
2018-04-30T11:14:20.032Z,43.81
2018-04-30T11:15:20.048Z,41.77
2018-04-30T11:16:20.064Z,45.00
2018-04-30T11:17:20.081Z,41.15
2018-04-30T11:18:20.096Z,39.74
2018-04-30T11:19:20.112Z,37.44
2018-04-30T11:20:20.131Z,37.13
2018-04-30T11:21:20.163Z,36.72
2018-04-30T11:22:20.167Z,35.20
2018-04-30T11:23:20.188Z,34.33
2018-04-30T11:24:20.207Z,33.57
2018-04-30T11:25:20.231Z,32.33
2018-04-30T11:26:20.180Z,31.63
2018-04-30T11:27:20.286Z,33.12
2018-04-30T11:28:20.289Z,33.02
2018-04-30T11:29:20.316Z,31.87
2018-04-30T11:30:20.332Z,33.41
2018-04-30T11:31:20.354Z,32.73
2018-04-30T11:32:20.378Z,31.59
2018-04-30T11:33:20.399Z,30.52
2018-04-30T11:34:20.429Z,31.10
2018-04-30T11:35:20.442Z,29.83
2018-04-30T11:36:20.464Z,30.32
2018-04-30T11:37:20.487Z,31.21
2018-04-30T11:38:20.533Z,30.47
2018-04-30T11:39:20.536Z,30.69
2018-04-30T11:40:20.562Z,28.86
2018-04-30T11:41:20.663Z,28.47
2018-04-30T11:42:20.602Z,30.26
2018-04-30T11:46:25.439Z,34.12
2018-04-30T11:47:25.523Z,29.77
2018-04-30T11:49:18.814Z,30.48
2018-04-30T11:50:18.864Z,31.62
2018-04-30T11:51:18.913Z,30.23
2018-04-30T11:52:19.170Z,30.26
2018-04-30T11:53:18.892Z,30.34
2018-04-30T11:54:18.917Z,27.73
2018-04-30T11:55:18.944Z,28.33
2018-04-30T11:56:18.958Z,28.83
2018-04-30T11:57:19.017Z,28.58
2018-04-30T11:58:19.047Z,30.57
2018-04-30T11:59:19.037Z,26.58
2018-04-30T12:00:19.053Z,26.08
2018-04-30T12:01:19.079Z,27.65
2018-04-30T12:02:19.107Z,28.72
2018-04-30T12:03:19.135Z,27.32
2018-04-30T12:04:19.202Z,27.59
2018-04-30T12:05:19.176Z,27.68
2018-04-30T12:06:19.232Z,29.10
2018-04-30T12:07:19.226Z,29.62
2018-04-30T12:08:19.260Z,28.18
2018-04-30T12:09:19.290Z,29.66
2018-04-30T12:10:19.307Z,32.02
2018-04-30T12:11:19.345Z,31.47
2018-04-30T12:12:19.365Z,27.33
2018-04-30T12:13:19.376Z,29.43
2018-04-30T12:14:19.399Z,30.38
2018-04-30T12:15:19.437Z,33.95
2018-04-30T12:16:19.452Z,31.14
2018-04-30T12:17:19.500Z,30.32
2018-04-30T12:18:19.497Z,30.11
2018-04-30T12:19:19.529Z,32.45
2018-04-30T12:20:19.555Z,32.45
2018-04-30T12:21:19.574Z,31.26
2018-04-30T12:22:19.611Z,32.50
2018-04-30T12:23:19.656Z,33.22
2018-04-30T12:24:19.673Z,31.77
2018-04-30T12:25:19.684Z,29.83
2018-04-30T12:26:19.703Z,30.48
2018-04-30T12:27:19.733Z,28.96
2018-04-30T12:28:19.757Z,27.48
2018-04-30T12:29:19.782Z,28.55
2018-04-30T12:30:19.910Z,28.80
2018-04-30T12:31:19.833Z,24.63
2018-04-30T12:32:19.970Z,26.90
2018-04-30T12:33:19.885Z,29.78
2018-04-30T12:34:19.913Z,27.44
2018-04-30T12:35:19.935Z,26.72
2018-04-30T12:36:19.962Z,27.04
2018-04-30T12:37:19.986Z,24.91
2018-04-30T12:38:20.037Z,25.20
2018-04-30T12:39:20.039Z,24.72
2018-04-30T12:40:20.063Z,24.82
2018-04-30T12:41:20.090Z,26.53
2018-04-30T12:42:20.150Z,27.22
2018-04-30T12:43:20.144Z,27.82
2018-04-30T12:44:20.171Z,27.05
2018-04-30T12:47:39.272Z,30.43
2018-04-30T12:48:39.153Z,30.98
2018-04-30T12:50:43.849Z,24.95
2018-04-30T12:51:43.635Z,24.45
2018-04-30T12:53:38.428Z,25.76
2018-04-30T12:54:38.613Z,28.44
2018-04-30T12:56:43.073Z,26.15
2018-04-30T12:57:43.119Z,27.59
2018-04-30T12:58:43.231Z,31.24
2018-04-30T12:59:43.116Z,31.57
2018-04-30T13:00:42.995Z,30.35
2018-04-30T13:01:42.939Z,30.66
2018-04-30T13:02:42.962Z,32.82
2018-04-30T13:03:42.957Z,29.52
2018-04-30T13:04:42.999Z,31.00
2018-04-30T13:05:43.031Z,30.83
2018-04-30T13:06:43.042Z,29.65
2018-04-30T13:07:43.065Z,28.96
2018-04-30T13:08:43.149Z,32.07
2018-04-30T13:09:43.134Z,30.43
2018-04-30T13:10:43.145Z,28.91
2018-04-30T13:11:43.183Z,31.76
2018-04-30T13:12:43.395Z,34.03
2018-04-30T13:13:43.270Z,31.21
2018-04-30T13:14:43.264Z,29.52
2018-04-30T13:15:43.277Z,29.42
2018-04-30T13:16:43.316Z,26.20
2018-04-30T13:17:43.340Z,27.44
2018-04-30T13:18:43.363Z,28.07
2018-04-30T13:19:43.397Z,25.96
2018-04-30T13:20:44.020Z,27.69
2018-04-30T13:22:46.238Z,31.13
2018-04-30T13:23:43.499Z,28.32
2018-04-30T13:24:44.308Z,27.55
2018-04-30T13:25:43.556Z,24.66
2018-04-30T13:26:43.957Z,22.92